sensor_id;sensor_type;location;lat;lon;timestamp;pressure;altitude;pressure_sealevel;temperature;humidity
26807;BME280;14380;49.910;6.792;2023-03-17T00:01:15;98324.94;;;4.07;100.00
26807;BME280;14380;49.910;6.792;2023-03-17T00:03:44;98320.91;;;3.98;100.00
26807;BME280;14380;49.910;6.792;2023-03-17T00:06:15;98310.69;;;3.92;100.00
26807;BME280;14380;49.910;6.792;2023-03-17T00:08:43;98307.53;;;4.07;100.00
26807;BME280;14380;49.910;6.792;2023-03-17T00:11:13;98303.81;;;3.89;100.00
26807;BME280;14380;49.910;6.792;2023-03-17T00:13:40;98311.56;;;3.92;100.00
26807;BME280;14380;49.910;6.792;2023-03-17T00:16:12;98315.06;;;3.91;100.00
26807;BME280;14380;49.910;6.792;2023-03-17T00:18:40;98308.41;;;3.82;100.00
26807;BME280;14380;49.910;6.792;2023-03-17T00:21:10;98311.47;;;3.70;100.00
26807;BME280;14380;49.910;6.792;2023-03-17T00:23:37;98306.06;;;3.75;100.00
26807;BME280;14380;49.910;6.792;2023-03-17T00:26:05;98302.22;;;3.60;100.00
26807;BME280;14380;49.910;6.792;2023-03-17T00:28:33;98302.34;;;3.82;100.00
26807;BME280;14380;49.910;6.792;2023-03-17T00:31:00;98297.41;;;3.74;100.00
26807;BME280;14380;49.910;6.792;2023-03-17T00:33:28;98294.41;;;3.85;100.00
26807;BME280;14380;49.910;6.792;2023-03-17T00:35:57;98299.06;;;4.00;100.00
26807;BME280;14380;49.910;6.792;2023-03-17T00:38:24;98306.53;;;4.11;100.00
26807;BME280;14380;49.910;6.792;2023-03-17T00:40:50;98310.00;;;3.86;100.00
26807;BME280;14380;49.910;6.792;2023-03-17T00:43:17;98311.66;;;3.89;100.00
26807;BME280;14380;49.910;6.792;2023-03-17T00:45:45;98320.63;;;3.82;100.00
26807;BME280;14380;49.910;6.792;2023-03-17T00:48:13;98324.03;;;4.08;100.00
26807;BME280;14380;49.910;6.792;2023-03-17T00:50:40;98332.47;;;4.16;100.00
26807;BME280;14380;49.910;6.792;2023-03-17T00:53:10;98329.56;;;4.24;100.00
26807;BME280;14380;49.910;6.792;2023-03-17T00:55:37;98319.59;;;4.35;100.00
26807;BME280;14380;49.910;6.792;2023-03-17T00:58:11;98311.63;;;4.38;100.00
26807;BME280;14380;49.910;6.792;2023-03-17T01:00:38;98307.44;;;3.85;100.00
26807;BME280;14380;49.910;6.792;2023-03-17T01:03:09;98306.38;;;3.91;100.00
26807;BME280;14380;49.910;6.792;2023-03-17T01:05:37;98300.66;;;4.05;100.00
26807;BME280;14380;49.910;6.792;2023-03-17T01:08:05;98300.31;;;3.90;100.00
26807;BME280;14380;49.910;6.792;2023-03-17T01:10:31;98296.03;;;3.87;100.00
26807;BME280;14380;49.910;6.792;2023-03-17T01:12:58;98286.81;;;3.77;100.00
26807;BME280;14380;49.910;6.792;2023-03-17T01:15:27;98263.00;;;3.86;100.00
26807;BME280;14380;49.910;6.792;2023-03-17T01:17:56;98274.34;;;3.85;100.00
26807;BME280;14380;49.910;6.792;2023-03-17T01:20:26;98288.41;;;3.81;100.00
26807;BME280;14380;49.910;6.792;2023-03-17T01:22:53;98289.22;;;3.83;100.00
26807;BME280;14380;49.910;6.792;2023-03-17T01:25:20;98283.84;;;4.12;100.00
26807;BME280;14380;49.910;6.792;2023-03-17T01:27:47;98276.50;;;4.22;100.00
26807;BME280;14380;49.910;6.792;2023-03-17T01:30:22;98288.28;;;4.34;100.00
26807;BME280;14380;49.910;6.792;2023-03-17T01:32:50;98299.41;;;3.40;100.00
26807;BME280;14380;49.910;6.792;2023-03-17T01:35:17;98285.34;;;3.70;100.00
26807;BME280;14380;49.910;6.792;2023-03-17T01:37:45;98275.72;;;3.96;100.00
26807;BME280;14380;49.910;6.792;2023-03-17T01:40:16;98266.00;;;3.99;100.00
26807;BME280;14380;49.910;6.792;2023-03-17T01:42:46;98267.84;;;3.97;100.00
26807;BME280;14380;49.910;6.792;2023-03-17T01:48:20;98251.38;;;3.95;100.00
26807;BME280;14380;49.910;6.792;2023-03-17T01:50:48;98243.28;;;4.01;100.00
26807;BME280;14380;49.910;6.792;2023-03-17T01:53:17;98245.84;;;3.79;100.00
26807;BME280;14380;49.910;6.792;2023-03-17T01:55:44;98250.84;;;3.85;100.00
26807;BME280;14380;49.910;6.792;2023-03-17T01:58:13;98239.56;;;3.85;100.00
26807;BME280;14380;49.910;6.792;2023-03-17T02:00:41;98235.72;;;3.95;100.00
26807;BME280;14380;49.910;6.792;2023-03-17T02:03:09;98241.09;;;3.91;100.00
26807;BME280;14380;49.910;6.792;2023-03-17T02:05:36;98244.59;;;3.90;100.00
26807;BME280;14380;49.910;6.792;2023-03-17T02:08:08;98249.34;;;3.78;100.00
26807;BME280;14380;49.910;6.792;2023-03-17T02:10:38;98249.53;;;3.74;100.00
26807;BME280;14380;49.910;6.792;2023-03-17T02:13:05;98249.94;;;3.86;100.00
26807;BME280;14380;49.910;6.792;2023-03-17T02:15:37;98238.19;;;3.75;100.00
26807;BME280;14380;49.910;6.792;2023-03-17T02:18:05;98244.09;;;3.80;100.00
26807;BME280;14380;49.910;6.792;2023-03-17T02:23:39;98241.06;;;3.67;100.00
26807;BME280;14380;49.910;6.792;2023-03-17T02:26:06;98249.75;;;3.42;100.00
26807;BME280;14380;49.910;6.792;2023-03-17T02:28:33;98242.47;;;3.52;100.00
26807;BME280;14380;49.910;6.792;2023-03-17T02:30:59;98246.19;;;3.45;100.00
26807;BME280;14380;49.910;6.792;2023-03-17T02:33:26;98246.28;;;3.67;100.00
26807;BME280;14380;49.910;6.792;2023-03-17T02:35:53;98253.56;;;3.57;100.00
26807;BME280;14380;49.910;6.792;2023-03-17T02:38:20;98246.88;;;3.50;100.00
26807;BME280;14380;49.910;6.792;2023-03-17T02:40:48;98236.44;;;3.50;100.00
26807;BME280;14380;49.910;6.792;2023-03-17T02:43:15;98228.34;;;3.32;100.00
26807;BME280;14380;49.910;6.792;2023-03-17T02:45:41;98217.97;;;3.31;100.00
26807;BME280;14380;49.910;6.792;2023-03-17T02:48:08;98218.50;;;3.40;100.00
26807;BME280;14380;49.910;6.792;2023-03-17T02:50:35;98219.44;;;3.38;100.00
26807;BME280;14380;49.910;6.792;2023-03-17T02:53:01;98220.41;;;3.35;100.00
26807;BME280;14380;49.910;6.792;2023-03-17T02:55:28;98219.91;;;3.24;100.00
26807;BME280;14380;49.910;6.792;2023-03-17T02:57:57;98220.22;;;3.15;100.00
26807;BME280;14380;49.910;6.792;2023-03-17T03:00:26;98226.22;;;3.18;100.00
26807;BME280;14380;49.910;6.792;2023-03-17T03:02:52;98231.03;;;3.31;100.00
26807;BME280;14380;49.910;6.792;2023-03-17T03:05:19;98224.50;;;3.17;100.00
26807;BME280;14380;49.910;6.792;2023-03-17T03:07:45;98226.00;;;3.24;100.00
26807;BME280;14380;49.910;6.792;2023-03-17T03:10:12;98237.16;;;3.03;100.00
26807;BME280;14380;49.910;6.792;2023-03-17T03:12:38;98235.19;;;3.09;100.00
26807;BME280;14380;49.910;6.792;2023-03-17T03:15:07;98228.06;;;3.15;100.00
26807;BME280;14380;49.910;6.792;2023-03-17T03:17:34;98221.56;;;3.01;100.00
26807;BME280;14380;49.910;6.792;2023-03-17T03:20:00;98215.28;;;3.07;100.00
26807;BME280;14380;49.910;6.792;2023-03-17T03:22:27;98201.59;;;3.00;100.00
26807;BME280;14380;49.910;6.792;2023-03-17T03:24:53;98211.97;;;3.02;100.00
26807;BME280;14380;49.910;6.792;2023-03-17T03:27:20;98204.25;;;2.98;100.00
26807;BME280;14380;49.910;6.792;2023-03-17T03:29:46;98206.56;;;3.08;100.00
26807;BME280;14380;49.910;6.792;2023-03-17T03:32:14;98211.44;;;2.92;100.00
26807;BME280;14380;49.910;6.792;2023-03-17T03:34:41;98213.63;;;2.77;100.00
26807;BME280;14380;49.910;6.792;2023-03-17T03:37:07;98218.09;;;3.01;100.00
26807;BME280;14380;49.910;6.792;2023-03-17T03:39:34;98218.47;;;2.90;100.00
26807;BME280;14380;49.910;6.792;2023-03-17T03:42:01;98217.66;;;2.88;100.00
26807;BME280;14380;49.910;6.792;2023-03-17T03:44:28;98218.75;;;2.80;100.00
26807;BME280;14380;49.910;6.792;2023-03-17T03:46:55;98212.06;;;2.98;100.00
26807;BME280;14380;49.910;6.792;2023-03-17T03:49:22;98216.69;;;2.90;100.00
26807;BME280;14380;49.910;6.792;2023-03-17T03:51:49;98214.75;;;2.97;100.00
26807;BME280;14380;49.910;6.792;2023-03-17T03:54:16;98221.22;;;2.85;100.00
26807;BME280;14380;49.910;6.792;2023-03-17T03:56:42;98229.88;;;2.86;100.00
26807;BME280;14380;49.910;6.792;2023-03-17T03:59:09;98244.16;;;2.74;100.00
26807;BME280;14380;49.910;6.792;2023-03-17T04:01:35;98235.91;;;2.88;100.00
26807;BME280;14380;49.910;6.792;2023-03-17T04:04:03;98232.78;;;2.76;100.00
26807;BME280;14380;49.910;6.792;2023-03-17T04:06:31;98236.16;;;2.80;100.00
26807;BME280;14380;49.910;6.792;2023-03-17T04:08:57;98236.16;;;2.80;100.00
26807;BME280;14380;49.910;6.792;2023-03-17T04:11:24;98236.47;;;2.69;100.00
26807;BME280;14380;49.910;6.792;2023-03-17T04:13:51;98242.56;;;2.70;100.00
26807;BME280;14380;49.910;6.792;2023-03-17T04:16:18;98254.13;;;2.61;100.00
26807;BME280;14380;49.910;6.792;2023-03-17T04:18:44;98241.78;;;2.66;100.00
26807;BME280;14380;49.910;6.792;2023-03-17T04:21:11;98244.31;;;2.69;100.00
26807;BME280;14380;49.910;6.792;2023-03-17T04:23:39;98242.66;;;2.66;100.00
26807;BME280;14380;49.910;6.792;2023-03-17T04:26:05;98241.75;;;2.67;100.00
26807;BME280;14380;49.910;6.792;2023-03-17T04:28:32;98240.31;;;2.59;100.00
26807;BME280;14380;49.910;6.792;2023-03-17T04:30:59;98241.03;;;2.62;100.00
26807;BME280;14380;49.910;6.792;2023-03-17T04:33:25;98241.56;;;2.45;100.00
26807;BME280;14380;49.910;6.792;2023-03-17T04:35:52;98237.81;;;2.54;100.00
26807;BME280;14380;49.910;6.792;2023-03-17T04:38:18;98238.69;;;2.55;100.00
26807;BME280;14380;49.910;6.792;2023-03-17T04:40:48;98241.38;;;2.51;100.00
26807;BME280;14380;49.910;6.792;2023-03-17T04:43:15;98241.50;;;2.47;100.00
26807;BME280;14380;49.910;6.792;2023-03-17T04:45:42;98241.47;;;2.48;100.00
26807;BME280;14380;49.910;6.792;2023-03-17T04:48:08;98242.38;;;2.47;100.00
26807;BME280;14380;49.910;6.792;2023-03-17T04:50:35;98239.13;;;2.41;100.00
26807;BME280;14380;49.910;6.792;2023-03-17T04:53:01;98242.81;;;2.33;100.00
26807;BME280;14380;49.910;6.792;2023-03-17T04:55:28;98244.34;;;2.41;100.00
26807;BME280;14380;49.910;6.792;2023-03-17T04:57:56;98252.63;;;2.23;100.00
26807;BME280;14380;49.910;6.792;2023-03-17T05:00:22;98250.53;;;2.36;100.00
26807;BME280;14380;49.910;6.792;2023-03-17T05:02:49;98251.13;;;2.45;100.00
26807;BME280;14380;49.910;6.792;2023-03-17T05:05:16;98238.97;;;2.45;100.00
26807;BME280;14380;49.910;6.792;2023-03-17T05:07:42;98234.81;;;2.40;100.00
26807;BME280;14380;49.910;6.792;2023-03-17T05:10:10;98242.31;;;2.49;100.00
26807;BME280;14380;49.910;6.792;2023-03-17T05:12:38;98243.94;;;2.53;100.00
26807;BME280;14380;49.910;6.792;2023-03-17T05:15:06;98234.56;;;2.47;100.00
26807;BME280;14380;49.910;6.792;2023-03-17T05:17:34;98231.00;;;2.50;100.00
26807;BME280;14380;49.910;6.792;2023-03-17T05:20:00;98233.69;;;2.47;100.00
26807;BME280;14380;49.910;6.792;2023-03-17T05:22:27;98236.38;;;2.44;100.00
26807;BME280;14380;49.910;6.792;2023-03-17T05:24:53;98237.25;;;2.44;100.00
26807;BME280;14380;49.910;6.792;2023-03-17T05:27:20;98244.28;;;2.42;100.00
26807;BME280;14380;49.910;6.792;2023-03-17T05:29:46;98239.97;;;2.41;100.00
26807;BME280;14380;49.910;6.792;2023-03-17T05:32:15;98237.19;;;2.46;100.00
26807;BME280;14380;49.910;6.792;2023-03-17T05:34:42;98244.75;;;2.55;100.00
26807;BME280;14380;49.910;6.792;2023-03-17T05:37:10;98252.75;;;2.49;100.00
26807;BME280;14380;49.910;6.792;2023-03-17T05:39:38;98260.94;;;2.36;100.00
26807;BME280;14380;49.910;6.792;2023-03-17T05:42:05;98248.31;;;2.52;100.00
26807;BME280;14380;49.910;6.792;2023-03-17T05:44:32;98243.81;;;2.58;100.00
26807;BME280;14380;49.910;6.792;2023-03-17T05:46:59;98248.41;;;2.49;100.00
26807;BME280;14380;49.910;6.792;2023-03-17T05:49:27;98249.25;;;2.50;100.00
26807;BME280;14380;49.910;6.792;2023-03-17T05:51:54;98251.84;;;2.50;100.00
26807;BME280;14380;49.910;6.792;2023-03-17T05:54:21;98242.91;;;2.59;100.00
26807;BME280;14380;49.910;6.792;2023-03-17T05:56:48;98246.91;;;2.69;100.00
26807;BME280;14380;49.910;6.792;2023-03-17T05:59:14;98247.53;;;2.77;100.00
26807;BME280;14380;49.910;6.792;2023-03-17T06:01:42;98243.47;;;2.68;100.00
26807;BME280;14380;49.910;6.792;2023-03-17T06:04:09;98240.16;;;2.63;100.00
26807;BME280;14380;49.910;6.792;2023-03-17T06:06:37;98239.66;;;2.79;100.00
26807;BME280;14380;49.910;6.792;2023-03-17T06:09:04;98243.28;;;2.75;100.00
26807;BME280;14380;49.910;6.792;2023-03-17T06:11:30;98241.41;;;2.78;100.00
26807;BME280;14380;49.910;6.792;2023-03-17T06:13:57;98240.91;;;2.94;100.00
26807;BME280;14380;49.910;6.792;2023-03-17T06:16:23;98234.53;;;3.03;100.00
26807;BME280;14380;49.910;6.792;2023-03-17T06:18:50;98234.81;;;2.95;100.00
26807;BME280;14380;49.910;6.792;2023-03-17T06:21:16;98230.19;;;2.76;100.00
26807;BME280;14380;49.910;6.792;2023-03-17T06:23:44;98231.75;;;2.82;100.00
26807;BME280;14380;49.910;6.792;2023-03-17T06:26:10;98241.69;;;2.69;100.00
26807;BME280;14380;49.910;6.792;2023-03-17T06:28:37;98241.66;;;2.71;100.00
26807;BME280;14380;49.910;6.792;2023-03-17T06:31:04;98244.78;;;2.82;100.00
26807;BME280;14380;49.910;6.792;2023-03-17T06:33:31;98245.63;;;2.82;100.00
26807;BME280;14380;49.910;6.792;2023-03-17T06:35:58;98247.94;;;2.92;100.00
26807;BME280;14380;49.910;6.792;2023-03-17T06:38:25;98249.25;;;3.05;100.00
26807;BME280;14380;49.910;6.792;2023-03-17T06:40:53;98246.19;;;3.19;100.00
26807;BME280;14380;49.910;6.792;2023-03-17T06:43:20;98238.25;;;3.22;100.00
26807;BME280;14380;49.910;6.792;2023-03-17T06:45:49;98241.13;;;3.40;100.00
26807;BME280;14380;49.910;6.792;2023-03-17T06:48:15;98241.91;;;3.42;100.00
26807;BME280;14380;49.910;6.792;2023-03-17T06:50:42;98238.78;;;3.32;100.00
26807;BME280;14380;49.910;6.792;2023-03-17T06:53:08;98246.31;;;3.15;100.00
26807;BME280;14380;49.910;6.792;2023-03-17T06:55:35;98253.06;;;3.47;100.00
26807;BME280;14380;49.910;6.792;2023-03-17T06:58:03;98248.03;;;3.66;100.00
26807;BME280;14380;49.910;6.792;2023-03-17T07:00:30;98249.25;;;3.81;100.00
26807;BME280;14380;49.910;6.792;2023-03-17T07:02:57;98252.94;;;3.76;100.00
26807;BME280;14380;49.910;6.792;2023-03-17T07:05:23;98250.06;;;4.07;100.00
26807;BME280;14380;49.910;6.792;2023-03-17T07:07:50;98246.03;;;4.22;100.00
26807;BME280;14380;49.910;6.792;2023-03-17T07:10:17;98249.16;;;4.54;100.00
26807;BME280;14380;49.910;6.792;2023-03-17T07:12:44;98244.47;;;4.63;100.00
26807;BME280;14380;49.910;6.792;2023-03-17T07:15:12;98240.41;;;4.78;100.00
26807;BME280;14380;49.910;6.792;2023-03-17T07:17:38;98240.50;;;4.97;100.00
26807;BME280;14380;49.910;6.792;2023-03-17T07:20:05;98240.91;;;5.08;100.00
26807;BME280;14380;49.910;6.792;2023-03-17T07:22:34;98247.84;;;5.09;100.00
26807;BME280;14380;49.910;6.792;2023-03-17T07:25:00;98243.66;;;5.05;100.00
26807;BME280;14380;49.910;6.792;2023-03-17T07:27:27;98243.22;;;5.16;100.00
26807;BME280;14380;49.910;6.792;2023-03-17T07:29:53;98247.59;;;5.36;100.00
26807;BME280;14380;49.910;6.792;2023-03-17T07:32:21;98256.72;;;5.48;100.00
26807;BME280;14380;49.910;6.792;2023-03-17T07:34:48;98262.75;;;5.50;100.00
26807;BME280;14380;49.910;6.792;2023-03-17T07:37:15;98265.75;;;5.61;100.00
26807;BME280;14380;49.910;6.792;2023-03-17T07:39:41;98272.16;;;5.54;100.00
26807;BME280;14380;49.910;6.792;2023-03-17T07:42:12;98271.28;;;5.74;100.00
26807;BME280;14380;49.910;6.792;2023-03-17T07:44:40;98279.34;;;5.90;100.00
26807;BME280;14380;49.910;6.792;2023-03-17T07:47:07;98262.56;;;6.15;100.00
26807;BME280;14380;49.910;6.792;2023-03-17T07:49:35;98261.28;;;6.24;100.00
26807;BME280;14380;49.910;6.792;2023-03-17T07:52:02;98256.78;;;6.64;100.00
26807;BME280;14380;49.910;6.792;2023-03-17T07:54:28;98255.28;;;6.60;100.00
26807;BME280;14380;49.910;6.792;2023-03-17T07:56:55;98252.16;;;5.93;100.00
26807;BME280;14380;49.910;6.792;2023-03-17T07:59:22;98252.16;;;5.93;100.00
26807;BME280;14380;49.910;6.792;2023-03-17T08:01:48;98260.94;;;6.32;100.00
26807;BME280;14380;49.910;6.792;2023-03-17T08:04:15;98261.50;;;6.58;100.00
26807;BME280;14380;49.910;6.792;2023-03-17T08:06:43;98264.19;;;6.56;100.00
26807;BME280;14380;49.910;6.792;2023-03-17T08:09:11;98247.56;;;6.38;100.00
26807;BME280;14380;49.910;6.792;2023-03-17T08:11:38;98259.66;;;6.02;100.00
26807;BME280;14380;49.910;6.792;2023-03-17T08:14:04;98249.84;;;6.06;100.00
26807;BME280;14380;49.910;6.792;2023-03-17T08:16:31;98255.69;;;6.13;100.00
26807;BME280;14380;49.910;6.792;2023-03-17T08:18:58;98245.28;;;6.30;100.00
26807;BME280;14380;49.910;6.792;2023-03-17T08:21:25;98241.06;;;6.45;100.00
26807;BME280;14380;49.910;6.792;2023-03-17T08:23:53;98244.84;;;6.59;100.00
26807;BME280;14380;49.910;6.792;2023-03-17T08:26:20;98236.88;;;6.79;100.00
26807;BME280;14380;49.910;6.792;2023-03-17T08:28:47;98235.63;;;6.87;100.00
26807;BME280;14380;49.910;6.792;2023-03-17T08:31:16;98235.47;;;6.72;100.00
26807;BME280;14380;49.910;6.792;2023-03-17T08:33:45;98226.31;;;7.16;100.00
26807;BME280;14380;49.910;6.792;2023-03-17T08:36:13;98226.69;;;7.43;100.00
26807;BME280;14380;49.910;6.792;2023-03-17T08:38:41;98223.91;;;7.29;100.00
26807;BME280;14380;49.910;6.792;2023-03-17T08:41:11;98234.69;;;7.42;100.00
26807;BME280;14380;49.910;6.792;2023-03-17T08:43:39;98232.94;;;7.58;100.00
26807;BME280;14380;49.910;6.792;2023-03-17T08:46:08;98233.59;;;7.80;100.00
26807;BME280;14380;49.910;6.792;2023-03-17T08:48:37;98225.44;;;8.02;100.00
26807;BME280;14380;49.910;6.792;2023-03-17T08:51:05;98225.06;;;7.92;99.84
26807;BME280;14380;49.910;6.792;2023-03-17T08:53:32;98236.47;;;7.93;100.00
26807;BME280;14380;49.910;6.792;2023-03-17T08:56:00;98237.78;;;8.33;100.00
26807;BME280;14380;49.910;6.792;2023-03-17T08:58:29;98231.19;;;8.74;96.18
26807;BME280;14380;49.910;6.792;2023-03-17T09:00:57;98218.03;;;8.58;99.10
26807;BME280;14380;49.910;6.792;2023-03-17T09:03:24;98218.69;;;8.14;100.00
26807;BME280;14380;49.910;6.792;2023-03-17T09:05:51;98215.13;;;8.47;100.00
26807;BME280;14380;49.910;6.792;2023-03-17T09:08:17;98209.03;;;8.78;97.62
26807;BME280;14380;49.910;6.792;2023-03-17T09:10:44;98218.72;;;9.08;96.53
26807;BME280;14380;49.910;6.792;2023-03-17T09:13:11;98223.75;;;9.28;94.19
26807;BME280;14380;49.910;6.792;2023-03-17T09:15:39;98223.16;;;9.53;92.43
26807;BME280;14380;49.910;6.792;2023-03-17T09:18:06;98217.19;;;9.49;91.25
26807;BME280;14380;49.910;6.792;2023-03-17T09:20:33;98216.00;;;9.55;92.50
26807;BME280;14380;49.910;6.792;2023-03-17T09:23:04;98206.41;;;9.83;89.18
26807;BME280;14380;49.910;6.792;2023-03-17T09:25:33;98210.09;;;10.09;90.34
26807;BME280;14380;49.910;6.792;2023-03-17T09:28:00;98213.97;;;10.04;86.92
26807;BME280;14380;49.910;6.792;2023-03-17T09:30:26;98222.50;;;10.51;87.73
26807;BME280;14380;49.910;6.792;2023-03-17T09:32:54;98223.06;;;10.41;87.48
26807;BME280;14380;49.910;6.792;2023-03-17T09:35:20;98219.47;;;10.57;90.98
26807;BME280;14380;49.910;6.792;2023-03-17T09:37:47;98206.72;;;11.04;89.17
26807;BME280;14380;49.910;6.792;2023-03-17T09:40:16;98213.63;;;11.07;89.49
26807;BME280;14380;49.910;6.792;2023-03-17T09:42:53;98206.38;;;11.23;89.82
26807;BME280;14380;49.910;6.792;2023-03-17T09:45:29;98215.56;;;10.90;89.09
26807;BME280;14380;49.910;6.792;2023-03-17T09:48:32;98213.00;;;11.03;91.85
26807;BME280;14380;49.910;6.792;2023-03-17T09:51:03;98213.91;;;11.81;93.26
26807;BME280;14380;49.910;6.792;2023-03-17T09:53:34;98207.44;;;11.98;90.87
26807;BME280;14380;49.910;6.792;2023-03-17T09:56:05;98215.59;;;11.95;88.05
26807;BME280;14380;49.910;6.792;2023-03-17T09:58:34;98213.69;;;12.23;86.11
26807;BME280;14380;49.910;6.792;2023-03-17T10:01:02;98215.09;;;11.90;85.50
26807;BME280;14380;49.910;6.792;2023-03-17T10:03:31;98205.53;;;12.26;83.09
26807;BME280;14380;49.910;6.792;2023-03-17T10:06:14;98215.47;;;12.60;86.58
26807;BME280;14380;49.910;6.792;2023-03-17T10:08:49;98193.28;;;11.99;83.75
26807;BME280;14380;49.910;6.792;2023-03-17T10:11:25;98192.22;;;12.52;83.97
26807;BME280;14380;49.910;6.792;2023-03-17T10:13:59;98176.41;;;12.88;82.20
26807;BME280;14380;49.910;6.792;2023-03-17T10:16:33;98172.00;;;12.51;79.16
26807;BME280;14380;49.910;6.792;2023-03-17T10:19:07;98179.72;;;12.78;79.25
26807;BME280;14380;49.910;6.792;2023-03-17T10:21:42;98180.88;;;12.99;78.51
26807;BME280;14380;49.910;6.792;2023-03-17T10:24:12;98176.53;;;12.98;75.78
26807;BME280;14380;49.910;6.792;2023-03-17T10:26:41;98168.88;;;13.53;75.06
26807;BME280;14380;49.910;6.792;2023-03-17T10:29:13;98164.84;;;13.24;70.23
26807;BME280;14380;49.910;6.792;2023-03-17T10:31:40;98162.03;;;13.73;66.84
26807;BME280;14380;49.910;6.792;2023-03-17T10:34:13;98163.94;;;13.48;66.55
26807;BME280;14380;49.910;6.792;2023-03-17T10:36:42;98165.53;;;13.74;68.06
26807;BME280;14380;49.910;6.792;2023-03-17T10:39:12;98162.63;;;13.43;70.51
26807;BME280;14380;49.910;6.792;2023-03-17T10:41:47;98179.75;;;13.61;68.12
26807;BME280;14380;49.910;6.792;2023-03-17T10:44:21;98172.38;;;13.53;66.86
26807;BME280;14380;49.910;6.792;2023-03-17T10:46:52;98166.59;;;14.17;67.19
26807;BME280;14380;49.910;6.792;2023-03-17T10:49:20;98164.41;;;14.33;67.93
26807;BME280;14380;49.910;6.792;2023-03-17T10:51:50;98165.38;;;14.21;63.34
26807;BME280;14380;49.910;6.792;2023-03-17T10:54:19;98150.97;;;14.46;64.17
26807;BME280;14380;49.910;6.792;2023-03-17T10:56:48;98145.00;;;14.77;65.04
26807;BME280;14380;49.910;6.792;2023-03-17T10:59:18;98154.25;;;14.38;64.27
26807;BME280;14380;49.910;6.792;2023-03-17T11:01:49;98148.44;;;14.56;65.24
26807;BME280;14380;49.910;6.792;2023-03-17T11:04:26;98148.28;;;14.69;64.99
26807;BME280;14380;49.910;6.792;2023-03-17T11:06:55;98140.41;;;14.79;64.32
26807;BME280;14380;49.910;6.792;2023-03-17T11:09:22;98140.78;;;14.74;63.66
26807;BME280;14380;49.910;6.792;2023-03-17T11:12:00;98125.28;;;14.79;64.03
26807;BME280;14380;49.910;6.792;2023-03-17T11:14:26;98133.31;;;15.22;63.78
26807;BME280;14380;49.910;6.792;2023-03-17T11:16:55;98124.41;;;14.90;62.87
26807;BME280;14380;49.910;6.792;2023-03-17T11:19:30;98134.69;;;14.83;65.74
26807;BME280;14380;49.910;6.792;2023-03-17T11:22:06;98132.91;;;15.79;65.00
26807;BME280;14380;49.910;6.792;2023-03-17T11:24:40;98138.47;;;15.75;63.38
26807;BME280;14380;49.910;6.792;2023-03-17T11:27:15;98128.16;;;15.82;60.93
26807;BME280;14380;49.910;6.792;2023-03-17T11:29:51;98131.31;;;15.87;64.00
26807;BME280;14380;49.910;6.792;2023-03-17T11:32:25;98122.22;;;16.00;61.40
26807;BME280;14380;49.910;6.792;2023-03-17T11:35:12;98127.16;;;15.52;61.44
26807;BME280;14380;49.910;6.792;2023-03-17T11:37:56;98117.00;;;15.88;60.39
26807;BME280;14380;49.910;6.792;2023-03-17T11:40:28;98115.25;;;15.77;60.79
26807;BME280;14380;49.910;6.792;2023-03-17T11:43:09;98111.56;;;16.00;62.13
26807;BME280;14380;49.910;6.792;2023-03-17T11:45:46;98115.13;;;16.20;64.28
26807;BME280;14380;49.910;6.792;2023-03-17T11:48:25;98116.94;;;15.48;62.66
26807;BME280;14380;49.910;6.792;2023-03-17T11:50:58;98112.28;;;15.71;59.72
26807;BME280;14380;49.910;6.792;2023-03-17T11:53:51;98109.06;;;15.46;62.54
26807;BME280;14380;49.910;6.792;2023-03-17T11:56:25;98114.31;;;15.05;62.93
26807;BME280;14380;49.910;6.792;2023-03-17T11:58:59;98117.66;;;15.28;63.79
26807;BME280;14380;49.910;6.792;2023-03-17T12:01:41;98117.88;;;14.94;62.56
26807;BME280;14380;49.910;6.792;2023-03-17T12:04:16;98114.34;;;15.36;62.20
26807;BME280;14380;49.910;6.792;2023-03-17T12:06:49;98105.97;;;16.13;62.14
26807;BME280;14380;49.910;6.792;2023-03-17T12:09:24;98103.06;;;15.85;63.80
26807;BME280;14380;49.910;6.792;2023-03-17T12:11:54;98099.69;;;15.73;62.12
26807;BME280;14380;49.910;6.792;2023-03-17T12:14:26;98107.22;;;15.99;63.73
26807;BME280;14380;49.910;6.792;2023-03-17T12:16:59;98104.91;;;15.84;60.89
26807;BME280;14380;49.910;6.792;2023-03-17T12:19:34;98106.06;;;15.60;63.00
26807;BME280;14380;49.910;6.792;2023-03-17T12:22:07;98096.50;;;15.79;61.01
26807;BME280;14380;49.910;6.792;2023-03-17T12:24:40;98094.13;;;16.37;64.05
26807;BME280;14380;49.910;6.792;2023-03-17T12:27:12;98097.34;;;16.30;62.07
26807;BME280;14380;49.910;6.792;2023-03-17T12:29:43;98096.97;;;15.94;61.76
26807;BME280;14380;49.910;6.792;2023-03-17T12:32:17;98097.44;;;15.47;64.28
26807;BME280;14380;49.910;6.792;2023-03-17T12:34:49;98094.09;;;15.76;63.01
26807;BME280;14380;49.910;6.792;2023-03-17T12:37:19;98095.88;;;15.35;62.90
26807;BME280;14380;49.910;6.792;2023-03-17T12:39:51;98084.00;;;15.39;63.23
26807;BME280;14380;49.910;6.792;2023-03-17T12:42:45;98093.41;;;15.84;64.00
26807;BME280;14380;49.910;6.792;2023-03-17T12:45:36;98095.84;;;15.97;66.53
26807;BME280;14380;49.910;6.792;2023-03-17T12:48:22;98098.22;;;15.90;62.82
26807;BME280;14380;49.910;6.792;2023-03-17T12:51:10;98099.53;;;16.05;62.35
26807;BME280;14380;49.910;6.792;2023-03-17T12:53:45;98092.13;;;16.19;62.86
26807;BME280;14380;49.910;6.792;2023-03-17T12:56:18;98085.72;;;16.61;64.61
26807;BME280;14380;49.910;6.792;2023-03-17T12:58:48;98079.34;;;16.13;60.61
26807;BME280;14380;49.910;6.792;2023-03-17T13:01:23;98082.59;;;16.26;62.93
26807;BME280;14380;49.910;6.792;2023-03-17T13:04:01;98078.81;;;16.19;60.47
26807;BME280;14380;49.910;6.792;2023-03-17T13:06:35;98081.63;;;16.37;64.62
26807;BME280;14380;49.910;6.792;2023-03-17T13:09:31;98074.88;;;16.23;62.62
26807;BME280;14380;49.910;6.792;2023-03-17T13:12:01;98071.50;;;16.01;60.80
26807;BME280;14380;49.910;6.792;2023-03-17T13:14:39;98066.72;;;16.05;61.08
26807;BME280;14380;49.910;6.792;2023-03-17T13:17:29;98069.59;;;16.53;61.63